createdAt,value
2018-03-02T00:00:10.814Z,63.90
2018-03-02T00:01:10.637Z,69.30
2018-03-02T00:02:10.546Z,65.30
2018-03-02T00:03:10.425Z,66.80
2018-03-02T00:04:10.344Z,65.80
2018-03-02T00:05:10.223Z,65.90
2018-03-02T00:06:10.110Z,65.70
2018-03-02T00:07:09.989Z,69.80
2018-03-02T00:08:09.883Z,67.60
2018-03-02T00:09:09.780Z,67.10
2018-03-02T00:10:09.720Z,66.00
2018-03-02T00:11:09.567Z,68.10
2018-03-02T00:12:09.475Z,65.30
2018-03-02T00:13:09.367Z,66.80
2018-03-02T00:14:09.267Z,66.30
2018-03-02T00:15:09.149Z,66.40
2018-03-02T00:16:09.081Z,64.60
2018-03-02T00:17:08.948Z,66.30
2018-03-02T00:18:08.847Z,65.90
2018-03-02T00:19:08.741Z,64.50
2018-03-02T00:20:08.635Z,67.80
2018-03-02T00:21:08.566Z,67.70
2018-03-02T00:22:08.534Z,66.00
2018-03-02T00:23:08.379Z,69.40
2018-03-02T00:24:08.252Z,67.00
2018-03-02T00:25:08.162Z,65.30
2018-03-02T00:26:08.029Z,63.90
2018-03-02T00:27:07.915Z,64.70
2018-03-02T00:28:07.895Z,67.10
2018-03-02T00:29:07.729Z,65.90
2018-03-02T00:30:07.626Z,68.00
2018-03-02T00:31:07.537Z,67.40
2018-03-02T00:32:07.412Z,71.70
2018-03-02T00:33:07.311Z,66.80
2018-03-02T00:34:07.201Z,64.70
2018-03-02T00:35:07.063Z,67.50
2018-03-02T00:36:06.960Z,69.40
2018-03-02T00:37:06.878Z,66.40
2018-03-02T00:38:06.760Z,62.70
2018-03-02T00:39:06.656Z,66.30
2018-03-02T00:40:06.592Z,70.30
2018-03-02T00:41:06.446Z,63.90
2018-03-02T00:42:06.352Z,66.60
2018-03-02T00:43:06.241Z,69.80
2018-03-02T00:44:06.137Z,67.90
2018-03-02T00:45:06.059Z,68.80
2018-03-02T00:46:05.958Z,67.20
2018-03-02T00:47:05.852Z,68.10
2018-03-02T00:48:05.763Z,71.60
2018-03-02T00:49:05.634Z,70.50
2018-03-02T00:50:05.544Z,67.80
2018-03-02T00:51:05.431Z,62.80
2018-03-02T00:52:05.361Z,70.80
2018-03-02T00:53:05.211Z,66.90
2018-03-02T00:54:05.126Z,65.00
2018-03-02T00:55:05.033Z,65.40
2018-03-02T00:56:04.915Z,72.00
2018-03-02T00:57:04.809Z,64.40
2018-03-02T00:58:04.749Z,64.90
2018-03-02T00:59:04.593Z,65.00
2018-03-02T01:00:04.507Z,66.00
2018-03-02T01:01:04.365Z,67.20
2018-03-02T01:02:04.248Z,69.40
2018-03-02T01:03:04.156Z,65.00
2018-03-02T01:04:04.127Z,66.10
2018-03-02T01:05:03.953Z,67.10
2018-03-02T01:06:03.840Z,69.30
2018-03-02T01:07:03.740Z,68.20
2018-03-02T01:08:03.630Z,69.20
2018-03-02T01:09:03.536Z,65.70
2018-03-02T01:10:03.432Z,67.00
2018-03-02T01:11:03.317Z,68.80
2018-03-02T01:12:03.237Z,67.10
2018-03-02T01:13:03.100Z,70.40
2018-03-02T01:14:03.060Z,68.90
2018-03-02T01:15:02.925Z,66.40
2018-03-02T01:16:02.846Z,66.00
2018-03-02T01:17:02.704Z,66.50
2018-03-02T01:18:02.605Z,68.70
2018-03-02T01:19:02.501Z,68.10
2018-03-02T01:20:02.443Z,68.60
2018-03-02T01:21:02.303Z,69.30
2018-03-02T01:22:02.261Z,69.70
2018-03-02T01:23:02.117Z,70.60
2018-03-02T01:24:01.982Z,67.50
2018-03-02T01:25:01.885Z,70.20
2018-03-02T01:26:01.774Z,68.40
2018-03-02T01:27:01.645Z,70.70
2018-03-02T01:28:01.586Z,69.60
2018-03-02T01:29:01.432Z,69.50
2018-03-02T01:30:01.322Z,70.20
2018-03-02T01:31:01.242Z,66.40
2018-03-02T01:32:01.127Z,70.30
2018-03-02T01:33:01.018Z,68.90
2018-03-02T01:34:00.947Z,68.80
2018-03-02T01:35:00.800Z,73.80
2018-03-02T01:36:00.695Z,71.60
2018-03-02T01:37:00.594Z,68.10
2018-03-02T01:38:00.487Z,69.10
2018-03-02T01:39:00.378Z,72.20
2018-03-02T01:40:00.369Z,70.10
2018-03-02T01:41:00.216Z,66.60
2018-03-02T01:42:00.090Z,73.60
2018-03-02T01:42:59.987Z,71.30
2018-03-02T01:43:59.901Z,72.50
2018-03-02T01:44:59.816Z,71.10
2018-03-02T01:45:59.728Z,70.40
2018-03-02T01:46:59.578Z,72.70
2018-03-02T01:47:59.469Z,73.20
2018-03-02T01:48:59.363Z,73.00
2018-03-02T01:49:59.278Z,70.70
2018-03-02T01:50:59.138Z,67.20
2018-03-02T01:51:59.081Z,71.80
2018-03-02T01:52:58.923Z,71.00
2018-03-02T01:53:58.801Z,70.60
2018-03-02T01:54:58.713Z,78.20
2018-03-02T01:55:58.610Z,71.20
2018-03-02T01:56:58.502Z,74.70
2018-03-02T01:57:58.482Z,70.00
2018-03-02T01:58:58.302Z,75.00
2018-03-02T01:59:58.186Z,69.90
2018-03-02T02:00:58.126Z,70.00
2018-03-02T02:01:57.968Z,71.90
2018-03-02T02:02:57.869Z,74.20
2018-03-02T02:03:57.779Z,74.70
2018-03-02T02:04:57.654Z,69.70
2018-03-02T02:05:57.551Z,71.60
2018-03-02T02:06:57.473Z,75.70
2018-03-02T02:07:57.396Z,73.90
2018-03-02T02:08:57.264Z,67.80
2018-03-02T02:09:57.214Z,76.40
2018-03-02T02:10:57.048Z,75.50
2018-03-02T02:11:56.944Z,76.90
2018-03-02T02:12:56.883Z,75.20
2018-03-02T02:13:56.739Z,75.60
2018-03-02T02:14:56.669Z,73.20
2018-03-02T02:15:56.572Z,69.80
2018-03-02T02:16:56.443Z,72.20
2018-03-02T02:17:56.304Z,73.30
2018-03-02T02:18:56.224Z,71.20
2018-03-02T02:19:56.111Z,73.70
2018-03-02T02:20:56.012Z,76.60
2018-03-02T02:21:55.915Z,77.00
2018-03-02T02:22:55.791Z,75.10
2018-03-02T02:23:55.665Z,75.20
2018-03-02T02:24:55.585Z,71.90
2018-03-02T02:25:55.465Z,74.20
2018-03-02T02:26:55.349Z,72.40
2018-03-02T02:27:55.265Z,72.90
2018-03-02T02:28:55.129Z,77.00
2018-03-02T02:29:55.029Z,69.10
2018-03-02T02:30:54.928Z,74.20
2018-03-02T02:31:54.826Z,74.40
2018-03-02T02:32:54.731Z,74.30
2018-03-02T02:33:54.692Z,73.40
2018-03-02T02:34:54.532Z,74.60
2018-03-02T02:35:54.440Z,73.80
2018-03-02T02:36:54.327Z,76.30
2018-03-02T02:37:54.208Z,74.90
2018-03-02T02:38:54.131Z,70.50
2018-03-02T02:39:54.037Z,72.20
2018-03-02T02:40:53.923Z,71.20
2018-03-02T02:41:53.834Z,70.90
2018-03-02T02:42:53.698Z,73.20
2018-03-02T02:43:53.612Z,70.10
2018-03-02T02:44:53.494Z,67.80
2018-03-02T02:45:53.401Z,70.30
2018-03-02T02:46:53.269Z,74.20
2018-03-02T02:47:53.140Z,73.60
2018-03-02T02:48:53.044Z,73.90
2018-03-02T02:49:52.931Z,75.20
2018-03-02T02:50:52.837Z,76.80
2018-03-02T02:51:52.777Z,77.60
2018-03-02T02:52:52.619Z,73.50
2018-03-02T02:53:52.513Z,72.60
2018-03-02T02:54:52.410Z,72.50
2018-03-02T02:55:52.306Z,78.60
2018-03-02T02:56:52.205Z,74.60
2018-03-02T02:57:52.121Z,75.20
2018-03-02T02:58:51.988Z,72.50
2018-03-02T02:59:51.885Z,76.40
2018-03-02T03:00:51.810Z,72.00
2018-03-02T03:01:51.709Z,74.20
2018-03-02T03:02:51.597Z,73.20
2018-03-02T03:03:51.556Z,68.30
2018-03-02T03:04:51.380Z,68.70
2018-03-02T03:05:51.284Z,70.90
2018-03-02T03:06:51.181Z,73.50
2018-03-02T03:07:51.067Z,73.10
2018-03-02T03:08:50.954Z,72.50
2018-03-02T03:09:50.890Z,71.20
2018-03-02T03:10:50.741Z,73.80
2018-03-02T03:11:50.640Z,74.80
2018-03-02T03:12:50.571Z,73.00
2018-03-02T03:13:50.443Z,70.30
2018-03-02T03:14:50.306Z,71.10
2018-03-02T03:15:50.239Z,74.60
2018-03-02T03:16:50.097Z,70.80
2018-03-02T03:17:49.994Z,72.80
2018-03-02T03:18:49.891Z,72.10
2018-03-02T03:19:49.785Z,72.60
2018-03-02T03:20:49.681Z,75.70
2018-03-02T03:21:49.594Z,71.70
2018-03-02T03:22:49.464Z,70.50
2018-03-02T03:23:49.372Z,69.90
2018-03-02T03:24:49.275Z,71.30
2018-03-02T03:25:49.170Z,66.50
2018-03-02T03:26:49.051Z,69.40
2018-03-02T03:27:48.978Z,76.60
2018-03-02T03:28:48.863Z,79.20
2018-03-02T03:29:48.751Z,71.50
2018-03-02T03:30:48.670Z,69.80
2018-03-02T03:31:48.570Z,70.00
2018-03-02T03:32:48.448Z,71.90
2018-03-02T03:33:48.366Z,68.60
2018-03-02T03:34:48.214Z,68.60
2018-03-02T03:35:48.143Z,69.60
2018-03-02T03:36:48.040Z,74.10
2018-03-02T03:37:47.915Z,67.40
2018-03-02T03:38:47.814Z,76.00
2018-03-02T03:39:47.742Z,69.70
2018-03-02T03:40:47.591Z,70.90
2018-03-02T03:41:47.516Z,72.20
2018-03-02T03:42:47.371Z,70.40
2018-03-02T03:43:47.265Z,71.60
2018-03-02T03:44:47.161Z,75.70
2018-03-02T03:45:47.105Z,75.70
2018-03-02T03:46:46.947Z,72.50
2018-03-02T03:47:46.845Z,71.90
2018-03-02T03:48:46.740Z,72.50
2018-03-02T03:49:46.632Z,73.40
2018-03-02T03:50:46.528Z,71.50
2018-03-02T03:51:46.449Z,75.20
2018-03-02T03:52:46.320Z,73.70
2018-03-02T03:53:46.221Z,69.10
2018-03-02T03:54:46.118Z,72.00
2018-03-02T03:55:46.005Z,70.00
2018-03-02T03:56:45.946Z,70.30
2018-03-02T03:57:45.846Z,74.00
2018-03-02T03:58:45.723Z,70.10
2018-03-02T03:59:45.605Z,71.00
2018-03-02T04:00:45.506Z,69.80
2018-03-02T04:01:45.410Z,69.10
2018-03-02T04:02:45.289Z,70.10
2018-03-02T04:03:45.227Z,71.40
2018-03-02T04:04:45.082Z,73.60
2018-03-02T04:05:44.988Z,73.40
2018-03-02T04:06:44.886Z,71.90
2018-03-02T04:07:44.782Z,72.20
2018-03-02T04:08:44.682Z,74.50
2018-03-02T04:09:44.603Z,73.00
2018-03-02T04:10:44.422Z,70.20
2018-03-02T04:11:44.310Z,72.80
2018-03-02T04:12:44.213Z,73.40
2018-03-02T04:13:44.112Z,68.10
2018-03-02T04:14:43.995Z,75.00
2018-03-02T04:15:43.918Z,70.80
2018-03-02T04:16:43.796Z,72.40
2018-03-02T04:17:43.683Z,74.10
2018-03-02T04:18:43.587Z,70.90
2018-03-02T04:19:43.485Z,75.50
2018-03-02T04:20:43.377Z,76.70
2018-03-02T04:21:43.325Z,74.70
2018-03-02T04:22:43.159Z,76.00
2018-03-02T04:23:43.056Z,75.40
2018-03-02T04:24:42.958Z,77.90
2018-03-02T04:25:42.878Z,70.00
2018-03-02T04:26:42.773Z,79.20
2018-03-02T04:27:42.724Z,77.30
2018-03-02T04:28:42.575Z,75.00
2018-03-02T04:29:42.506Z,74.50
2018-03-02T04:30:42.324Z,72.60
2018-03-02T04:31:42.222Z,76.80
2018-03-02T04:32:42.111Z,74.90
2018-03-02T04:33:42.082Z,75.60
2018-03-02T04:34:41.940Z,76.50
2018-03-02T04:35:41.831Z,83.50
2018-03-02T04:36:41.686Z,70.10
2018-03-02T04:37:41.580Z,75.60
2018-03-02T04:38:41.491Z,74.40
2018-03-02T04:39:41.414Z,76.40
2018-03-02T04:40:41.291Z,74.30
2018-03-02T04:41:41.238Z,72.70
2018-03-02T04:42:41.147Z,77.00
2018-03-02T04:43:40.953Z,72.40
2018-03-02T04:44:40.841Z,78.20
2018-03-02T04:45:40.826Z,76.00
2018-03-02T04:46:40.650Z,77.10
2018-03-02T04:47:40.544Z,74.30
2018-03-02T04:48:40.432Z,71.70
2018-03-02T04:49:40.361Z,71.40
2018-03-02T04:50:40.248Z,75.20
2018-03-02T04:51:40.167Z,79.20
2018-03-02T04:52:40.014Z,80.50
2018-03-02T04:53:39.896Z,76.20
2018-03-02T04:54:39.812Z,75.60
2018-03-02T04:55:39.709Z,76.70
2018-03-02T04:56:39.607Z,71.80
2018-03-02T04:57:39.562Z,77.40
2018-03-02T04:58:39.397Z,77.50
2018-03-02T04:59:39.289Z,79.60
2018-03-02T05:00:39.198Z,75.60
2018-03-02T05:01:39.091Z,74.80
2018-03-02T05:02:38.981Z,79.80
2018-03-02T05:03:38.946Z,73.30
2018-03-02T05:04:38.755Z,75.70
2018-03-02T05:05:38.636Z,75.00
2018-03-02T05:06:38.542Z,73.80
2018-03-02T05:07:38.432Z,78.80
2018-03-02T05:08:38.315Z,75.40
2018-03-02T05:09:38.259Z,79.00
2018-03-02T05:10:38.104Z,83.00
2018-03-02T05:11:38.007Z,79.10
2018-03-02T05:12:37.923Z,75.90
2018-03-02T05:13:37.803Z,77.70
2018-03-02T05:14:37.702Z,78.90
2018-03-02T05:15:37.631Z,80.60
2018-03-02T05:16:37.483Z,79.40
2018-03-02T05:17:37.389Z,76.20
2018-03-02T05:18:37.267Z,71.60
2018-03-02T05:19:37.162Z,84.60
2018-03-02T05:20:37.178Z,79.60
2018-03-02T05:21:37.013Z,79.80
2018-03-02T05:22:36.890Z,78.60
2018-03-02T05:23:36.780Z,80.20
2018-03-02T05:24:36.691Z,76.00
2018-03-02T05:25:36.607Z,80.10
2018-03-02T05:26:36.473Z,77.80
2018-03-02T05:27:36.395Z,80.40
2018-03-02T05:28:36.244Z,78.00
2018-03-02T05:29:36.144Z,78.70
2018-03-02T05:30:36.060Z,81.30
2018-03-02T05:31:35.940Z,77.80
2018-03-02T05:32:36.582Z,79.90
2018-03-02T05:33:35.806Z,79.80
2018-03-02T05:34:35.617Z,81.20
2018-03-02T05:35:35.489Z,82.30
2018-03-02T05:36:35.388Z,84.50
2018-03-02T05:37:35.277Z,82.20
2018-03-02T05:38:35.170Z,77.20
2018-03-02T05:39:35.096Z,75.90
2018-03-02T05:40:34.951Z,74.90
2018-03-02T05:41:34.868Z,77.00
2018-03-02T05:42:34.743Z,77.50
2018-03-02T05:43:34.639Z,74.10
2018-03-02T05:44:34.536Z,79.60
2018-03-02T05:45:34.441Z,77.00
2018-03-02T05:46:34.314Z,81.70
2018-03-02T05:47:34.208Z,83.40
2018-03-02T05:48:34.095Z,79.10
2018-03-02T05:49:34.050Z,76.00
2018-03-02T05:50:33.930Z,81.30
2018-03-02T05:51:33.889Z,78.60
2018-03-02T05:52:33.708Z,86.20
2018-03-02T05:53:33.612Z,79.00
2018-03-02T05:54:33.523Z,83.00
2018-03-02T05:55:33.435Z,84.00
2018-03-02T05:56:33.306Z,82.40
2018-03-02T05:57:33.252Z,77.60
2018-03-02T05:58:33.082Z,83.90
2018-03-02T05:59:32.956Z,86.20
2018-03-02T06:00:32.855Z,88.70
2018-03-02T06:01:32.786Z,85.20
2018-03-02T06:02:32.652Z,84.40
2018-03-02T06:03:32.615Z,88.30
2018-03-02T06:04:32.429Z,81.30
2018-03-02T06:05:32.310Z,79.20
2018-03-02T06:06:32.209Z,87.80
2018-03-02T06:07:32.136Z,88.60
2018-03-02T06:08:32.010Z,85.70
2018-03-02T06:09:31.961Z,86.00
2018-03-02T06:10:31.804Z,85.10
2018-03-02T06:11:31.681Z,81.10
2018-03-02T06:12:31.618Z,81.20
2018-03-02T06:13:31.487Z,82.50
2018-03-02T06:14:31.368Z,76.70
2018-03-02T06:15:31.286Z,81.50
2018-03-02T06:16:31.171Z,81.60
2018-03-02T06:17:31.071Z,82.00
2018-03-02T06:18:30.975Z,84.70
2018-03-02T06:19:30.923Z,80.70
2018-03-02T06:20:30.764Z,81.40
2018-03-02T06:21:30.679Z,84.90
2018-03-02T06:22:30.541Z,78.40
2018-03-02T06:23:30.445Z,74.50
2018-03-02T06:24:30.359Z,82.90
2018-03-02T06:25:30.270Z,79.50
2018-03-02T06:26:30.142Z,88.40
2018-03-02T06:27:30.080Z,83.80
2018-03-02T06:28:29.958Z,88.90
2018-03-02T06:29:29.837Z,82.20
2018-03-02T06:30:29.769Z,79.50
2018-03-02T06:31:29.628Z,82.60
2018-03-02T06:32:29.534Z,81.50
2018-03-02T06:33:29.408Z,82.50
2018-03-02T06:34:29.282Z,82.70
2018-03-02T06:35:29.171Z,82.10
2018-03-02T06:36:29.074Z,76.40
2018-03-02T06:37:28.963Z,77.20
2018-03-02T06:38:28.881Z,79.50
2018-03-02T06:39:28.787Z,80.50
2018-03-02T06:40:28.660Z,84.00
2018-03-02T06:41:28.550Z,77.30
2018-03-02T06:42:28.445Z,79.30
2018-03-02T06:43:28.320Z,80.80
2018-03-02T06:44:28.229Z,84.50
2018-03-02T06:45:28.183Z,78.30
2018-03-02T06:46:28.020Z,84.40
2018-03-02T06:47:27.917Z,79.20
2018-03-02T06:48:27.811Z,83.60
2018-03-02T06:49:27.741Z,82.10
2018-03-02T06:50:27.638Z,81.80
2018-03-02T06:51:27.559Z,73.60
2018-03-02T06:52:27.444Z,80.20
2018-03-02T06:53:27.302Z,81.00
2018-03-02T06:54:27.227Z,76.10
2018-03-02T06:55:27.131Z,74.70
2018-03-02T06:56:26.995Z,80.90
2018-03-02T06:57:26.959Z,78.70
2018-03-02T06:58:26.784Z,81.10
2018-03-02T06:59:26.684Z,80.90
2018-03-02T07:00:26.587Z,75.70
2018-03-02T07:01:26.497Z,76.20
2018-03-02T07:02:26.366Z,76.90
2018-03-02T07:03:26.293Z,79.30
2018-03-02T07:04:26.137Z,74.50
2018-03-02T07:05:26.038Z,76.80
2018-03-02T07:06:25.942Z,79.10
2018-03-02T07:07:25.833Z,77.10
2018-03-02T07:08:25.733Z,74.60
2018-03-02T07:09:25.664Z,77.50
2018-03-02T07:10:25.549Z,80.60
2018-03-02T07:11:25.428Z,82.10
2018-03-02T07:12:25.327Z,75.20
2018-03-02T07:13:25.209Z,75.80
2018-03-02T07:14:25.149Z,81.50
2018-03-02T07:15:25.073Z,78.40
2018-03-02T07:16:24.904Z,78.10
2018-03-02T07:17:24.845Z,78.00
2018-03-02T07:18:24.721Z,80.40
2018-03-02T07:19:24.613Z,77.20
2018-03-02T07:20:24.500Z,74.90
2018-03-02T07:21:24.475Z,76.00
2018-03-02T07:22:24.313Z,79.40
2018-03-02T07:23:24.186Z,78.40
2018-03-02T07:24:24.115Z,81.60
2018-03-02T07:25:24.014Z,77.40
2018-03-02T07:26:23.910Z,79.00
2018-03-02T07:27:23.832Z,77.40
2018-03-02T07:28:23.689Z,79.80
2018-03-02T07:29:23.611Z,72.50
2018-03-02T07:30:23.497Z,73.40
2018-03-02T07:31:23.362Z,76.60
2018-03-02T07:32:23.243Z,75.90
2018-03-02T07:33:23.178Z,76.00
2018-03-02T07:34:23.040Z,78.50
2018-03-02T07:35:22.944Z,76.50
2018-03-02T07:36:22.842Z,80.00
2018-03-02T07:37:22.762Z,78.20
2018-03-02T07:38:22.690Z,74.80
2018-03-02T07:39:22.565Z,78.80
2018-03-02T07:40:22.427Z,76.20
2018-03-02T07:41:22.310Z,79.10
2018-03-02T07:42:22.218Z,79.20
2018-03-02T07:43:22.122Z,82.30
2018-03-02T07:44:22.021Z,77.80
2018-03-02T07:45:21.978Z,76.70
2018-03-02T07:46:21.799Z,82.10
2018-03-02T07:47:21.718Z,79.70
2018-03-02T07:48:21.617Z,77.80
2018-03-02T07:49:21.514Z,79.90
2018-03-02T07:50:21.411Z,81.90
2018-03-02T07:51:21.354Z,78.80
2018-03-02T07:52:21.221Z,79.30
2018-03-02T07:53:21.117Z,79.60
2018-03-02T07:54:21.024Z,79.50
2018-03-02T07:55:20.918Z,73.00
2018-03-02T07:56:20.818Z,78.10
2018-03-02T07:57:20.758Z,78.10
2018-03-02T07:58:20.633Z,79.60
2018-03-02T07:59:20.455Z,80.70
2018-03-02T08:00:20.341Z,76.50
2018-03-02T08:01:20.247Z,77.20
2018-03-02T08:02:20.165Z,72.10
2018-03-02T08:03:20.112Z,72.60
2018-03-02T08:04:20.025Z,73.30
2018-03-02T08:05:19.841Z,77.40
2018-03-02T08:06:19.744Z,79.70
2018-03-02T08:07:19.658Z,74.20
2018-03-02T08:08:19.538Z,78.00
2018-03-02T08:09:19.439Z,76.60
2018-03-02T08:10:19.331Z,71.80
2018-03-02T08:11:19.254Z,75.00
2018-03-02T08:12:19.169Z,75.30
2018-03-02T08:13:19.017Z,74.00
2018-03-02T08:14:18.976Z,76.60
2018-03-02T08:15:18.926Z,74.60
2018-03-02T08:16:18.764Z,73.70
2018-03-02T08:17:18.691Z,71.10
2018-03-02T08:18:18.522Z,75.90
2018-03-02T08:19:18.463Z,68.50
2018-03-02T08:20:18.316Z,72.70
2018-03-02T08:21:18.249Z,73.20
2018-03-02T08:22:18.136Z,75.80
2018-03-02T08:23:18.030Z,76.80
2018-03-02T08:24:17.942Z,71.50
2018-03-02T08:25:17.830Z,75.10
2018-03-02T08:26:17.699Z,71.80
2018-03-02T08:27:17.638Z,78.50
2018-03-02T08:28:17.492Z,75.80
2018-03-02T08:29:17.410Z,78.90
2018-03-02T08:30:17.285Z,74.70
2018-03-02T08:31:17.183Z,73.50
2018-03-02T08:32:17.082Z,69.00
2018-03-02T08:33:17.034Z,71.20
2018-03-02T08:34:16.876Z,75.90
2018-03-02T08:35:16.788Z,72.60
2018-03-02T08:36:16.679Z,70.70
2018-03-02T08:37:16.584Z,80.20
2018-03-02T08:38:16.468Z,68.70
2018-03-02T08:39:16.414Z,72.70
2018-03-02T08:40:16.292Z,76.00
2018-03-02T08:41:16.204Z,75.20
2018-03-02T08:42:16.093Z,75.80
2018-03-02T08:43:16.011Z,76.70
2018-03-02T08:44:15.918Z,71.20
2018-03-02T08:45:15.847Z,71.50
2018-03-02T08:46:15.692Z,76.90
2018-03-02T08:47:15.595Z,75.30
2018-03-02T08:48:15.481Z,76.80
2018-03-02T08:49:15.415Z,72.80
2018-03-02T08:50:15.304Z,72.60
2018-03-02T08:51:15.235Z,72.20
2018-03-02T08:52:15.123Z,69.60
2018-03-02T08:53:15.017Z,76.50
2018-03-02T08:54:14.864Z,69.30
2018-03-02T08:55:14.763Z,67.60
2018-03-02T08:56:14.664Z,73.20
2018-03-02T08:57:14.582Z,70.90
2018-03-02T08:58:14.475Z,69.50
2018-03-02T08:59:14.356Z,70.30
2018-03-02T09:00:14.274Z,74.30
2018-03-02T09:01:14.164Z,70.00
2018-03-02T09:02:14.059Z,68.40
2018-03-02T09:03:13.980Z,70.90
2018-03-02T09:04:13.859Z,68.10
2018-03-02T09:05:13.761Z,69.50
2018-03-02T09:06:13.661Z,67.00
2018-03-02T09:07:13.546Z,71.50
2018-03-02T09:08:13.474Z,65.70
2018-03-02T09:09:13.432Z,66.70
2018-03-02T09:10:13.282Z,71.00
2018-03-02T09:11:13.212Z,68.00
2018-03-02T09:12:13.078Z,81.00
2018-03-02T09:13:13.006Z,94.20
2018-03-02T09:14:12.880Z,74.30
2018-03-02T09:15:12.841Z,74.90
2018-03-02T09:16:12.673Z,73.20
2018-03-02T09:17:12.590Z,71.60
2018-03-02T09:18:12.459Z,67.60
2018-03-02T09:19:12.385Z,69.50
2018-03-02T09:20:12.286Z,69.50
2018-03-02T09:21:12.181Z,67.50
2018-03-02T09:22:12.055Z,67.40
2018-03-02T09:23:11.967Z,70.00
2018-03-02T09:24:11.877Z,64.10
2018-03-02T09:25:11.777Z,65.90
2018-03-02T09:26:11.666Z,68.60
2018-03-02T09:27:11.619Z,70.20
2018-03-02T09:28:11.465Z,70.50
2018-03-02T09:29:11.364Z,69.50
2018-03-02T09:30:11.649Z,62.50
2018-03-02T09:31:11.161Z,68.50
2018-03-02T09:32:11.064Z,68.10
2018-03-02T09:33:11.005Z,65.20
2018-03-02T09:34:10.870Z,70.20
2018-03-02T09:35:10.797Z,67.60
2018-03-02T09:36:10.704Z,67.90
2018-03-02T09:37:10.608Z,65.50
2018-03-02T09:38:10.502Z,67.60
2018-03-02T09:39:10.440Z,65.00
2018-03-02T09:40:10.347Z,66.50
2018-03-02T09:41:10.205Z,66.80
2018-03-02T09:42:10.121Z,71.80
2018-03-02T09:43:10.010Z,68.00
2018-03-02T09:44:09.914Z,65.80
2018-03-02T09:45:09.866Z,64.90
2018-03-02T09:46:09.690Z,67.20
2018-03-02T09:47:09.590Z,65.20
2018-03-02T09:48:09.503Z,63.60
2018-03-02T09:49:09.394Z,61.50
2018-03-02T09:50:09.289Z,64.20
2018-03-02T09:51:09.231Z,63.00
2018-03-02T09:52:09.099Z,61.50
2018-03-02T09:53:09.011Z,66.40
2018-03-02T09:54:08.906Z,62.90
2018-03-02T09:55:08.798Z,64.00
2018-03-02T09:56:08.712Z,61.10
2018-03-02T09:57:08.633Z,61.90
2018-03-02T09:58:09.007Z,62.70
2018-03-02T09:59:08.430Z,57.60
2018-03-02T10:00:08.332Z,61.90
2018-03-02T10:01:08.228Z,63.30
2018-03-02T10:02:08.123Z,58.80
2018-03-02T10:03:08.130Z,63.70
2018-03-02T10:04:07.970Z,64.70
2018-03-02T10:05:07.859Z,62.70
2018-03-02T10:06:07.759Z,62.40
2018-03-02T10:07:07.673Z,64.10
2018-03-02T10:08:07.564Z,61.80
2018-03-02T10:09:07.539Z,61.60
2018-03-02T10:10:07.420Z,61.00
2018-03-02T10:11:07.313Z,59.50
2018-03-02T10:12:07.195Z,64.20
2018-03-02T10:13:07.134Z,60.90
2018-03-02T10:14:06.984Z,60.60
2018-03-02T10:15:06.916Z,59.30
2018-03-02T10:16:06.809Z,61.30
2018-03-02T10:17:06.697Z,62.30
2018-03-02T10:18:06.597Z,59.70
2018-03-02T10:19:06.502Z,59.30
2018-03-02T10:20:06.426Z,61.10
2018-03-02T10:21:06.639Z,60.90
2018-03-02T10:22:06.223Z,57.40
2018-03-02T10:23:06.128Z,60.40
2018-03-02T10:24:06.028Z,56.20
2018-03-02T10:25:05.949Z,60.00
2018-03-02T10:26:05.863Z,61.20
2018-03-02T10:27:05.780Z,59.00
2018-03-02T10:28:05.667Z,58.10
2018-03-02T10:29:05.601Z,57.00
2018-03-02T10:30:05.475Z,59.90
2018-03-02T10:31:05.420Z,60.30
2018-03-02T10:32:05.289Z,61.80
2018-03-02T10:33:05.228Z,58.60
2018-03-02T10:34:05.126Z,64.40
2018-03-02T10:35:05.032Z,63.80
2018-03-02T10:36:04.952Z,60.00
2018-03-02T10:37:04.849Z,60.00
2018-03-02T10:38:04.769Z,60.20
2018-03-02T10:39:04.681Z,64.80
2018-03-02T10:40:04.547Z,60.70
2018-03-02T10:41:04.494Z,60.20
2018-03-02T10:42:04.371Z,58.30
2018-03-02T10:43:04.290Z,56.70
2018-03-02T10:44:04.158Z,61.10
2018-03-02T10:45:04.114Z,56.40
2018-03-02T10:46:03.979Z,59.20
2018-03-02T10:47:03.877Z,62.40
2018-03-02T10:48:03.793Z,63.00
2018-03-02T10:49:03.692Z,61.00
2018-03-02T10:50:03.602Z,60.70
2018-03-02T10:51:03.536Z,58.40
2018-03-02T10:52:03.409Z,65.60
2018-03-02T10:53:03.343Z,66.20
2018-03-02T10:54:03.256Z,67.10
2018-03-02T10:55:03.149Z,61.80
2018-03-02T10:56:03.055Z,62.50
2018-03-02T10:57:02.987Z,64.20
2018-03-02T10:58:02.877Z,63.70
2018-03-02T10:59:02.874Z,63.70
2018-03-02T11:00:02.716Z,61.30
2018-03-02T11:01:02.604Z,61.10
2018-03-02T11:02:02.502Z,60.30
2018-03-02T11:03:02.650Z,62.40
2018-03-02T11:04:02.331Z,63.50
2018-03-02T11:05:02.224Z,58.80
2018-03-02T11:06:02.110Z,62.10
2018-03-02T11:07:02.037Z,65.70
2018-03-02T11:08:02.006Z,67.20
2018-03-02T11:09:01.884Z,63.90
2018-03-02T11:10:01.773Z,64.00
2018-03-02T11:11:01.690Z,61.80
2018-03-02T11:12:01.603Z,70.80
2018-03-02T11:13:01.440Z,67.30
2018-03-02T11:14:01.367Z,57.80
2018-03-02T11:15:01.294Z,60.30
2018-03-02T11:16:01.172Z,62.80
2018-03-02T11:17:01.091Z,60.70
2018-03-02T11:18:00.986Z,60.50
2018-03-02T11:19:00.878Z,60.80
2018-03-02T11:20:00.791Z,59.90
2018-03-02T11:21:00.720Z,62.00
2018-03-02T11:22:00.596Z,61.30
2018-03-02T11:23:00.503Z,59.40
2018-03-02T11:24:00.412Z,58.30
2018-03-02T11:25:00.323Z,62.30
2018-03-02T11:26:00.285Z,62.50
2018-03-02T11:27:00.167Z,60.20
2018-03-02T11:28:00.053Z,61.90
2018-03-02T11:29:00.045Z,55.90
2018-03-02T11:29:59.868Z,59.20
2018-03-02T11:30:59.805Z,54.80
2018-03-02T11:31:59.725Z,56.80
2018-03-02T11:32:59.656Z,55.70
2018-03-02T11:33:59.523Z,56.90
2018-03-02T11:34:59.424Z,55.80
2018-03-02T11:35:59.340Z,54.60
2018-03-02T11:36:59.232Z,58.00
2018-03-02T11:37:59.132Z,61.40
2018-03-02T11:38:59.112Z,61.60
2018-03-02T11:39:58.927Z,60.80
2018-03-02T11:40:58.826Z,57.20
2018-03-02T11:41:58.782Z,56.20
2018-03-02T11:42:58.660Z,56.60
2018-03-02T11:43:58.567Z,57.00
2018-03-02T11:44:58.499Z,61.00
2018-03-02T11:45:58.372Z,65.80
2018-03-02T11:46:58.321Z,57.80
2018-03-02T11:47:58.198Z,59.70
2018-03-02T11:48:58.100Z,57.70
2018-03-02T11:49:58.020Z,61.70
2018-03-02T11:50:57.983Z,59.30
2018-03-02T11:51:57.806Z,56.10
2018-03-02T11:52:57.723Z,59.20
2018-03-02T11:53:57.658Z,57.70
2018-03-02T11:54:57.584Z,60.40
2018-03-02T11:55:57.479Z,57.80
2018-03-02T11:56:57.437Z,54.90
2018-03-02T11:57:57.269Z,57.80
2018-03-02T11:58:57.282Z,58.20
2018-03-02T11:59:57.121Z,59.40
2018-03-02T12:00:57.006Z,57.20
2018-03-02T12:01:56.969Z,61.40
2018-03-02T12:02:56.869Z,59.60
2018-03-02T12:03:56.763Z,60.30
2018-03-02T12:04:56.679Z,56.10
2018-03-02T12:05:56.564Z,59.20
2018-03-02T12:06:56.443Z,58.40
2018-03-02T12:07:56.342Z,60.20
2018-03-02T12:08:56.299Z,60.40
2018-03-02T12:09:56.148Z,62.90
2018-03-02T12:10:56.062Z,56.10
2018-03-02T12:11:55.969Z,59.50
2018-03-02T12:12:55.893Z,57.30
2018-03-02T12:13:55.792Z,58.10
2018-03-02T12:14:55.733Z,57.70
2018-03-02T12:15:55.616Z,54.90
2018-03-02T12:16:55.512Z,54.60
2018-03-02T12:17:55.414Z,55.50
2018-03-02T12:18:55.317Z,55.90
2018-03-02T12:19:55.240Z,58.70
2018-03-02T12:20:55.200Z,58.30
2018-03-02T12:21:55.074Z,62.10
2018-03-02T12:22:54.947Z,60.40
2018-03-02T12:23:54.863Z,60.80
2018-03-02T12:24:54.804Z,57.30
2018-03-02T12:25:54.702Z,58.10
2018-03-02T12:26:54.679Z,55.50
2018-03-02T12:27:54.517Z,58.80
2018-03-02T12:28:54.448Z,59.40
2018-03-02T12:29:54.332Z,60.10
2018-03-02T12:30:54.241Z,63.50
2018-03-02T12:31:54.133Z,61.30
2018-03-02T12:32:54.076Z,59.10
2018-03-02T12:33:53.946Z,58.90
2018-03-02T12:34:53.832Z,54.40
2018-03-02T12:35:53.751Z,60.40
2018-03-02T12:36:53.644Z,62.80
2018-03-02T12:37:53.559Z,60.40
2018-03-02T12:38:53.480Z,58.20
2018-03-02T12:39:53.382Z,60.70
2018-03-02T12:40:53.245Z,58.50
2018-03-02T12:41:53.176Z,58.90
2018-03-02T12:42:53.063Z,61.60
2018-03-02T12:43:52.985Z,57.40
2018-03-02T12:44:52.911Z,61.00
2018-03-02T12:45:52.782Z,60.80
2018-03-02T12:46:52.685Z,61.70
2018-03-02T12:47:52.581Z,62.10
2018-03-02T12:48:52.549Z,57.10
2018-03-02T12:49:52.495Z,63.20
2018-03-02T12:50:52.360Z,61.70